Allendale, South Carolina
Current Conditions -  °F | °C
As of 1:35 PM on Sunday 23 Nov 2014 (Local Time) from KAQX Reporting Station
Haze Haze  
Wind Chill: 64°   Ceiling: 500
Heat Index: 64°   Visibility: 1.7mi
Dew Point: 63°   Wind: 7mph
Humidity: 94%   Direction: 110°ESE
Pressure: 29.91"   Gusts: 15mph
Location:  33.01°N, 81.31°W
Report Text: KAQX 231835Z AUTO 11006G13KT 1 3/4SM BR OVC005 18/17 A2991 RMK AO2
Loading
Personal Weather Stations






























Interactive Weather Map New forecast layout! Learn more

10-Day Weather Forecast

Advertisements
Track Severe Weather on mobile